createdAt,value
2022-08-15T00:01:19.195Z,12.07
2022-08-15T00:04:00.731Z,7.43
2022-08-15T00:06:49.198Z,4.43
2022-08-15T00:09:20.649Z,5.40
2022-08-15T00:11:50.856Z,7.83
2022-08-15T00:14:31.185Z,7.47
2022-08-15T00:17:00.652Z,4.93
2022-08-15T00:19:32.804Z,6.20
2022-08-15T00:22:05.557Z,8.60
2022-08-15T00:24:51.534Z,3.57
2022-08-15T00:27:23.409Z,5.20
2022-08-15T00:29:54.006Z,6.47
2022-08-15T00:33:02.816Z,7.57
2022-08-15T00:35:30.542Z,7.47
2022-08-15T00:38:12.393Z,9.00
2022-08-15T00:41:05.169Z,6.57
2022-08-15T00:43:34.221Z,7.33
2022-08-15T00:46:13.618Z,8.50
2022-08-15T00:48:49.598Z,7.33
2022-08-15T00:51:30.385Z,4.20
2022-08-15T00:54:56.238Z,4.80
2022-08-15T00:57:57.303Z,4.60
2022-08-15T01:00:28.169Z,5.20
2022-08-15T01:03:01.252Z,6.10
2022-08-15T01:05:29.842Z,12.17
2022-08-15T01:07:57.718Z,4.93
2022-08-15T01:10:24.875Z,5.93
2022-08-15T01:12:53.175Z,9.17
2022-08-15T01:15:28.855Z,5.17
2022-08-15T01:18:22.593Z,6.03
2022-08-15T01:20:55.301Z,5.07
2022-08-15T01:23:54.963Z,7.20
2022-08-15T01:26:41.358Z,6.97
2022-08-15T01:29:10.102Z,6.53
2022-08-15T01:31:37.956Z,6.20
2022-08-15T01:34:17.518Z,4.97
2022-08-15T01:36:45.779Z,7.07
2022-08-15T01:39:34.253Z,9.13
2022-08-15T01:42:07.898Z,6.23
2022-08-15T01:44:50.405Z,7.37
2022-08-15T01:47:47.254Z,5.57
2022-08-15T01:50:31.484Z,8.47
2022-08-15T01:53:09.645Z,6.37
2022-08-15T01:55:53.536Z,6.77
2022-08-15T01:58:23.490Z,5.87
2022-08-15T02:00:55.273Z,6.30
2022-08-15T02:03:22.194Z,9.23
2022-08-15T02:05:54.201Z,6.77
2022-08-15T02:08:34.955Z,6.83
2022-08-15T02:11:16.442Z,6.10
2022-08-15T02:13:51.376Z,6.53
2022-08-15T02:16:20.583Z,6.87
2022-08-15T02:18:47.480Z,7.57
2022-08-15T02:21:14.508Z,9.30
2022-08-15T02:23:41.479Z,12.00
2022-08-15T02:26:09.990Z,7.57
2022-08-15T02:28:38.749Z,7.87
2022-08-15T02:31:13.348Z,8.20
2022-08-15T02:33:43.387Z,9.07
2022-08-15T02:36:14.980Z,6.90
2022-08-15T02:38:59.872Z,6.60
2022-08-15T02:41:37.759Z,6.70
2022-08-15T02:44:13.447Z,6.90
2022-08-15T02:47:03.402Z,7.30
2022-08-15T02:49:35.687Z,10.97
2022-08-15T02:52:20.070Z,7.33
2022-08-15T02:55:00.821Z,7.97
2022-08-15T02:57:33.087Z,10.07
2022-08-15T03:00:19.810Z,7.33
2022-08-15T03:02:58.690Z,8.50
2022-08-15T03:05:29.005Z,9.80
2022-08-15T03:07:55.697Z,9.33
2022-08-15T03:10:29.383Z,7.20
2022-08-15T03:13:06.746Z,7.80
2022-08-15T03:15:57.157Z,7.87
2022-08-15T03:18:32.061Z,8.83
2022-08-15T03:21:01.302Z,8.53
2022-08-15T03:23:42.050Z,8.63
2022-08-15T03:26:25.292Z,9.00
2022-08-15T03:29:01.850Z,9.60
2022-08-15T03:31:41.545Z,7.83
2022-08-15T03:34:15.497Z,10.90
2022-08-15T03:36:52.556Z,8.37
2022-08-15T03:39:20.279Z,9.30
2022-08-15T03:41:54.870Z,8.17
2022-08-15T03:44:26.712Z,13.13
2022-08-15T03:46:57.604Z,11.47
2022-08-15T03:50:24.236Z,9.40
2022-08-15T03:52:12.162Z,12.33
2022-08-15T03:54:39.672Z,11.83
2022-08-15T03:57:09.371Z,9.40
2022-08-15T03:59:39.636Z,11.53
2022-08-15T04:02:29.615Z,9.17
2022-08-15T04:04:59.092Z,10.27
2022-08-15T04:07:26.478Z,8.53
2022-08-15T04:10:36.982Z,10.33
2022-08-15T04:12:59.897Z,8.43
2022-08-15T04:15:32.366Z,8.67
2022-08-15T04:18:00.937Z,10.30
2022-08-15T04:20:32.834Z,8.77
2022-08-15T04:23:02.159Z,8.60
2022-08-15T04:25:38.278Z,10.23
2022-08-15T04:28:28.800Z,11.27
2022-08-15T04:31:04.722Z,11.87
2022-08-15T04:34:00.873Z,9.80
2022-08-15T04:36:21.441Z,8.20
2022-08-15T04:38:57.117Z,9.60
2022-08-15T04:41:35.401Z,9.17
2022-08-15T04:44:07.126Z,8.83
2022-08-15T04:46:44.068Z,10.03
2022-08-15T04:49:11.294Z,8.20
2022-08-15T04:51:38.391Z,10.07
2022-08-15T04:54:06.439Z,9.03
2022-08-15T04:56:50.379Z,8.00
2022-08-15T04:59:36.451Z,8.20
2022-08-15T05:02:55.773Z,7.67
2022-08-15T05:04:53.714Z,8.97
2022-08-15T05:07:20.289Z,9.83
2022-08-15T05:10:00.290Z,9.73
2022-08-15T05:12:33.691Z,7.50
2022-08-15T05:15:02.904Z,7.97
2022-08-15T05:17:56.955Z,6.90
2022-08-15T05:20:18.516Z,9.80
2022-08-15T05:23:04.125Z,11.63
2022-08-15T05:25:41.797Z,9.50
2022-08-15T05:28:29.891Z,8.80
2022-08-15T05:30:57.984Z,8.73
2022-08-15T05:33:55.645Z,6.97
2022-08-15T05:36:27.775Z,10.80
2022-08-15T05:39:03.967Z,9.43
2022-08-15T05:41:33.456Z,6.70
2022-08-15T05:44:39.042Z,8.53
2022-08-15T05:47:14.273Z,9.70
2022-08-15T05:49:47.031Z,10.60
2022-08-15T05:52:34.629Z,9.10
2022-08-15T05:55:38.032Z,8.43
2022-08-15T05:58:37.001Z,9.40
2022-08-15T06:01:30.401Z,13.47
2022-08-15T06:04:42.881Z,7.17
2022-08-15T06:07:13.134Z,6.23
2022-08-15T06:09:56.416Z,11.07
2022-08-15T06:12:27.646Z,8.83
2022-08-15T06:14:59.112Z,11.10
2022-08-15T06:17:33.197Z,8.03
2022-08-15T06:20:28.887Z,7.50
2022-08-15T06:23:10.357Z,9.63
2022-08-15T06:26:02.680Z,7.20
2022-08-15T06:28:53.827Z,9.60
2022-08-15T06:31:39.343Z,6.07
2022-08-15T06:34:54.693Z,9.57
2022-08-15T06:38:00.448Z,8.53
2022-08-15T06:40:42.052Z,9.20
2022-08-15T06:43:10.884Z,11.83
2022-08-15T06:45:49.116Z,8.53
2022-08-15T06:48:59.017Z,6.77
2022-08-15T06:51:08.736Z,5.73
2022-08-15T06:53:39.791Z,9.13
2022-08-15T06:56:28.974Z,10.30
2022-08-15T06:59:22.688Z,9.90
2022-08-15T07:02:21.061Z,8.60
2022-08-15T07:04:57.317Z,11.33
2022-08-15T07:07:36.571Z,7.70
2022-08-15T07:10:13.090Z,7.77
2022-08-15T07:12:52.466Z,5.27
2022-08-15T07:15:26.267Z,8.07
2022-08-15T07:17:59.164Z,6.97
2022-08-15T07:20:37.903Z,6.57
2022-08-15T07:23:23.182Z,6.43
2022-08-15T07:25:52.267Z,5.73
2022-08-15T07:28:29.434Z,5.67
2022-08-15T07:31:05.712Z,7.23
2022-08-15T07:33:44.532Z,6.43
2022-08-15T07:36:34.386Z,7.80
2022-08-15T07:39:33.143Z,9.23
2022-08-15T07:45:14.590Z,6.60
2022-08-15T07:47:55.461Z,10.57
2022-08-15T07:50:39.055Z,5.20
2022-08-15T07:56:40.509Z,8.27
2022-08-15T07:59:10.197Z,5.70
2022-08-15T08:01:37.237Z,7.93
2022-08-15T08:07:33.929Z,8.70
2022-08-15T08:10:24.478Z,7.17
2022-08-15T08:13:20.198Z,5.93
2022-08-15T08:15:53.238Z,5.63
2022-08-15T08:18:48.679Z,7.43
2022-08-15T08:21:41.949Z,7.03
2022-08-15T08:24:16.647Z,5.60
2022-08-15T08:26:56.306Z,6.10
2022-08-15T08:29:29.566Z,8.40
2022-08-15T08:32:24.263Z,12.43
2022-08-15T08:35:22.065Z,7.60
2022-08-15T08:37:54.094Z,9.00
2022-08-15T08:40:52.040Z,6.43
2022-08-15T08:43:42.629Z,7.47
2022-08-15T08:46:30.674Z,6.10
2022-08-15T08:49:09.936Z,7.37
2022-08-15T08:51:36.359Z,10.07
2022-08-15T08:54:24.564Z,6.23
2022-08-15T08:57:03.664Z,9.57
2022-08-15T09:00:00.487Z,7.70
2022-08-15T09:02:30.777Z,13.03
2022-08-15T09:05:02.961Z,8.13
2022-08-15T09:07:36.128Z,10.03
2022-08-15T09:10:07.492Z,7.47
2022-08-15T09:13:00.413Z,10.33
2022-08-15T09:15:41.263Z,5.80
2022-08-15T09:18:23.714Z,8.23
2022-08-15T09:20:54.830Z,6.57
2022-08-15T09:23:25.873Z,6.07
2022-08-15T09:26:12.480Z,6.80
2022-08-15T09:28:55.064Z,8.83
2022-08-15T09:31:37.895Z,10.07
2022-08-15T09:34:52.616Z,9.53
2022-08-15T09:37:30.764Z,8.47
2022-08-15T09:40:58.853Z,7.77
2022-08-15T09:43:36.611Z,7.87
2022-08-15T09:46:42.765Z,10.07
2022-08-15T09:50:03.389Z,8.30
2022-08-15T09:53:03.105Z,12.40
2022-08-15T09:55:46.402Z,7.87
2022-08-15T09:58:36.706Z,6.97
2022-08-15T10:01:10.380Z,7.47
2022-08-15T10:03:48.486Z,6.63
2022-08-15T10:06:34.268Z,9.27
2022-08-15T10:09:16.364Z,7.00
2022-08-15T10:11:59.854Z,7.73
2022-08-15T10:14:48.291Z,11.30
2022-08-15T10:17:33.061Z,11.40
2022-08-15T10:20:19.823Z,8.40
2022-08-15T10:22:57.406Z,8.43
2022-08-15T10:25:37.903Z,8.17
2022-08-15T10:28:35.299Z,8.80
2022-08-15T10:30:59.632Z,7.63
2022-08-15T10:33:34.736Z,5.67
2022-08-15T10:36:20.846Z,8.17
2022-08-15T10:39:17.670Z,7.47
2022-08-15T10:42:25.736Z,7.33
2022-08-15T10:45:23.213Z,10.33
2022-08-15T10:48:16.608Z,8.40
2022-08-15T10:51:08.685Z,6.23
2022-08-15T10:53:50.739Z,7.67
2022-08-15T10:57:06.002Z,7.43
2022-08-15T10:59:19.613Z,8.03
2022-08-15T11:01:48.709Z,13.10
2022-08-15T11:04:58.060Z,10.17
2022-08-15T11:07:29.685Z,10.73
2022-08-15T11:09:59.160Z,9.87
2022-08-15T11:12:29.892Z,5.73
2022-08-15T11:15:00.559Z,8.77
2022-08-15T11:17:45.895Z,9.40
2022-08-15T11:20:20.597Z,11.27
2022-08-15T11:22:56.642Z,11.13
2022-08-15T11:25:30.343Z,6.23
2022-08-15T11:28:36.622Z,7.27
2022-08-15T11:31:00.509Z,9.23
2022-08-15T11:33:38.104Z,6.33
2022-08-15T11:36:10.897Z,7.10
2022-08-15T11:38:38.851Z,6.37
2022-08-15T11:41:30.233Z,6.63
2022-08-15T11:44:02.143Z,5.87
2022-08-15T11:46:30.526Z,5.60
2022-08-15T11:49:06.977Z,9.50
2022-08-15T11:52:41.714Z,9.57
2022-08-15T11:54:34.655Z,7.47
2022-08-15T11:57:04.557Z,6.57
2022-08-15T12:00:03.642Z,9.70
2022-08-15T12:02:35.185Z,5.77
2022-08-15T12:05:44.484Z,8.33
2022-08-15T12:10:55.784Z,9.37
2022-08-15T12:13:16.940Z,7.70
2022-08-15T12:13:33.374Z,7.10
2022-08-15T12:16:10.672Z,7.23
2022-08-15T12:18:51.659Z,6.27
2022-08-15T12:21:21.322Z,7.53
2022-08-15T12:23:55.702Z,6.97
2022-08-15T12:26:40.043Z,7.97
2022-08-15T12:29:12.532Z,7.83
2022-08-15T12:31:42.904Z,7.23
2022-08-15T12:34:27.512Z,6.67
2022-08-15T12:37:05.701Z,6.97
2022-08-15T12:39:43.790Z,6.93
2022-08-15T12:42:47.302Z,6.53
2022-08-15T12:45:19.733Z,10.27
2022-08-15T12:48:05.161Z,6.63
2022-08-15T12:50:33.841Z,6.80
2022-08-15T12:53:08.686Z,8.57
2022-08-15T12:55:38.858Z,7.97
2022-08-15T12:58:06.713Z,8.93
2022-08-15T13:00:36.011Z,7.07
2022-08-15T13:03:19.030Z,10.23
2022-08-15T13:06:31.772Z,6.97
2022-08-15T13:08:53.629Z,12.63
2022-08-15T13:11:20.561Z,9.00
2022-08-15T13:13:49.084Z,10.17
2022-08-15T13:17:07.141Z,10.30
2022-08-15T13:19:06.948Z,9.23
2022-08-15T13:21:58.552Z,7.97
2022-08-15T13:24:27.480Z,6.63
2022-08-15T13:26:54.173Z,8.87
2022-08-15T13:29:20.881Z,8.87
2022-08-15T13:31:48.208Z,7.27
2022-08-15T13:34:21.608Z,13.77
2022-08-15T13:36:54.434Z,8.90
2022-08-15T13:39:29.240Z,8.90
2022-08-15T13:42:05.336Z,9.27
2022-08-15T13:44:45.145Z,7.50
2022-08-15T13:47:16.759Z,10.40
2022-08-15T13:49:44.922Z,8.27
2022-08-15T13:52:35.420Z,9.83
2022-08-15T13:54:59.806Z,7.53
2022-08-15T13:57:28.877Z,6.97
2022-08-15T13:59:57.367Z,6.20
2022-08-15T14:02:35.819Z,8.03
2022-08-15T14:05:05.739Z,8.40
2022-08-15T14:07:50.989Z,12.77
2022-08-15T14:11:12.210Z,14.03
2022-08-15T14:13:12.882Z,10.23
2022-08-15T14:16:07.718Z,11.70
2022-08-15T14:18:50.536Z,10.80
2022-08-15T14:21:16.671Z,10.70
2022-08-15T14:23:51.238Z,10.53
2022-08-15T14:29:33.408Z,11.30
2022-08-15T14:35:10.050Z,11.03
2022-08-15T14:37:47.494Z,10.13
2022-08-15T14:40:35.130Z,10.00
2022-08-15T14:43:03.049Z,9.20
2022-08-15T14:46:33.303Z,9.70
2022-08-15T14:48:47.223Z,9.60
2022-08-15T14:52:00.592Z,9.03
2022-08-15T14:54:02.072Z,9.93
2022-08-15T14:56:33.302Z,10.63
2022-08-15T14:59:01.920Z,10.40
2022-08-15T15:01:32.485Z,11.17
2022-08-15T15:04:06.411Z,10.80
2022-08-15T15:06:34.085Z,10.27
2022-08-15T15:09:01.539Z,10.73
2022-08-15T15:11:29.780Z,9.73
2022-08-15T15:13:59.008Z,10.33
2022-08-15T15:16:42.231Z,10.43
2022-08-15T15:19:21.057Z,11.67
2022-08-15T15:22:07.643Z,10.50
2022-08-15T15:24:39.645Z,10.70
2022-08-15T15:27:08.529Z,10.43
2022-08-15T15:29:46.417Z,12.13
2022-08-15T15:32:30.036Z,10.53
2022-08-15T15:35:04.651Z,10.43
2022-08-15T15:37:32.465Z,9.83
2022-08-15T15:39:59.276Z,9.43
2022-08-15T15:42:31.964Z,9.83
2022-08-15T15:45:02.016Z,9.47
2022-08-15T15:47:28.953Z,9.83
2022-08-15T15:50:25.897Z,9.37
2022-08-15T15:53:12.189Z,9.40
2022-08-15T15:55:43.146Z,9.90
2022-08-15T15:59:01.496Z,10.03
2022-08-15T16:01:17.843Z,9.07
2022-08-15T16:04:01.885Z,9.53
2022-08-15T16:07:00.936Z,9.20
2022-08-15T16:09:17.843Z,9.07
2022-08-15T16:13:00.023Z,8.80
2022-08-15T16:15:43.151Z,9.70
2022-08-15T16:18:24.498Z,9.57
2022-08-15T16:21:06.729Z,8.10
2022-08-15T16:23:57.682Z,9.23
2022-08-15T16:26:53.942Z,9.83
2022-08-15T16:29:25.711Z,9.13
2022-08-15T16:31:59.880Z,8.57
2022-08-15T16:34:40.863Z,9.23
2022-08-15T16:37:14.706Z,8.53
2022-08-15T16:40:24.828Z,11.50
2022-08-15T16:42:47.756Z,15.17
2022-08-15T16:45:21.826Z,11.93
2022-08-15T16:48:13.741Z,10.87
2022-08-15T16:51:11.973Z,11.43
2022-08-15T16:53:56.420Z,8.63
2022-08-15T16:56:51.101Z,14.17
2022-08-15T16:59:22.939Z,9.20
2022-08-15T17:03:08.263Z,9.70
2022-08-15T17:05:18.787Z,8.90
2022-08-15T17:08:03.884Z,8.37
2022-08-15T17:10:56.779Z,8.30
2022-08-15T17:13:27.620Z,9.03
2022-08-15T17:16:28.057Z,10.90
2022-08-15T17:19:01.840Z,9.73
2022-08-15T17:21:50.150Z,9.27
2022-08-15T17:24:42.243Z,8.67
2022-08-15T17:27:31.224Z,8.97
2022-08-15T17:30:19.669Z,9.57
2022-08-15T17:33:03.325Z,9.80
2022-08-15T17:35:30.673Z,8.87
2022-08-15T17:38:02.229Z,10.03
2022-08-15T17:40:37.470Z,9.80
2022-08-15T17:43:10.974Z,9.13
2022-08-15T17:45:45.047Z,9.83
2022-08-15T17:48:51.057Z,9.60
2022-08-15T17:51:33.901Z,9.87
2022-08-15T17:54:05.906Z,9.63
2022-08-15T17:56:53.691Z,14.40
2022-08-15T17:59:34.723Z,11.00
2022-08-15T18:02:30.288Z,12.10
2022-08-15T18:05:01.592Z,10.00
2022-08-15T18:07:33.465Z,9.80
2022-08-15T18:10:32.164Z,9.93
2022-08-15T18:13:12.583Z,10.57
2022-08-15T18:16:19.244Z,10.10
2022-08-15T18:18:47.498Z,10.57
2022-08-15T18:22:07.659Z,10.70
2022-08-15T18:24:38.453Z,11.07
2022-08-15T18:27:21.715Z,11.23
2022-08-15T18:29:57.298Z,11.60
2022-08-15T18:32:30.737Z,10.00
2022-08-15T18:35:01.198Z,10.80
2022-08-15T18:37:49.942Z,11.43
2022-08-15T18:40:52.805Z,11.27
2022-08-15T18:43:20.276Z,11.87
2022-08-15T18:45:50.562Z,12.20
2022-08-15T18:48:35.545Z,11.80
2022-08-15T18:51:16.630Z,12.57
2022-08-15T18:54:07.044Z,12.10
2022-08-15T18:56:58.061Z,11.57
2022-08-15T18:59:24.584Z,12.57
2022-08-15T19:01:56.969Z,11.87
2022-08-15T19:04:51.007Z,13.13
2022-08-15T19:07:25.821Z,13.93
2022-08-15T19:10:00.299Z,14.37
2022-08-15T19:12:37.344Z,14.87
2022-08-15T19:15:11.930Z,14.10
2022-08-15T19:17:42.314Z,14.83
2022-08-15T19:20:26.885Z,15.77
2022-08-15T19:22:57.477Z,14.33
2022-08-15T19:25:31.282Z,14.13
2022-08-15T19:28:00.976Z,14.73
2022-08-15T19:30:35.614Z,15.93
2022-08-15T19:33:21.960Z,17.13
2022-08-15T19:36:03.702Z,17.03
2022-08-15T19:39:10.500Z,16.77
2022-08-15T19:42:00.847Z,17.47
2022-08-15T19:44:51.148Z,18.63
2022-08-15T19:47:23.884Z,16.93
2022-08-15T19:50:53.665Z,16.47
2022-08-15T19:53:39.640Z,16.63
2022-08-15T19:56:15.836Z,15.70
2022-08-15T19:58:52.117Z,15.73
2022-08-15T20:01:25.721Z,15.93
2022-08-15T20:04:38.162Z,15.87
2022-08-15T20:07:14.249Z,14.67
2022-08-15T20:10:02.956Z,15.10
2022-08-15T20:12:43.651Z,15.70
2022-08-15T20:15:41.973Z,16.27
2022-08-15T20:18:29.417Z,14.67
2022-08-15T20:20:59.550Z,14.70
2022-08-15T20:23:41.495Z,15.37
2022-08-15T20:26:30.538Z,16.30
2022-08-15T20:29:32.014Z,15.57
2022-08-15T20:32:36.357Z,16.47
2022-08-15T20:35:37.259Z,16.50
2022-08-15T20:38:10.144Z,16.33
2022-08-15T20:41:10.993Z,16.57
2022-08-15T20:43:48.752Z,17.30
2022-08-15T20:46:28.846Z,16.50
2022-08-15T20:49:03.361Z,15.40
2022-08-15T20:52:00.986Z,15.67
2022-08-15T20:54:34.393Z,16.07
2022-08-15T20:57:08.121Z,13.90
2022-08-15T20:59:43.837Z,14.30
2022-08-15T21:02:42.017Z,12.53
2022-08-15T21:05:18.062Z,11.73
2022-08-15T21:07:56.561Z,11.70
2022-08-15T21:10:37.465Z,10.77
2022-08-15T21:13:22.277Z,10.67
2022-08-15T21:16:32.333Z,10.67
2022-08-15T21:19:36.700Z,10.77
2022-08-15T21:22:42.569Z,10.47
2022-08-15T21:25:31.695Z,10.07
2022-08-15T21:28:10.054Z,10.03
2022-08-15T21:31:00.786Z,10.20
2022-08-15T21:33:41.004Z,9.73
2022-08-15T21:36:35.099Z,10.63
2022-08-15T21:39:07.211Z,9.77
2022-08-15T21:41:56.641Z,9.63
2022-08-15T21:44:35.183Z,9.60
2022-08-15T21:47:09.816Z,9.33
2022-08-15T21:49:37.019Z,10.07
2022-08-15T21:52:16.739Z,10.20
2022-08-15T21:54:57.689Z,9.97
2022-08-15T21:57:32.174Z,9.30
2022-08-15T22:00:19.314Z,9.57
2022-08-15T22:02:51.534Z,9.77
2022-08-15T22:05:21.176Z,11.30
2022-08-15T22:08:11.481Z,10.33
2022-08-15T22:10:38.271Z,11.53
2022-08-15T22:13:05.393Z,11.70
2022-08-15T22:15:35.620Z,10.63
2022-08-15T22:18:28.520Z,11.20
2022-08-15T22:20:51.693Z,11.37
2022-08-15T22:23:19.701Z,11.47
2022-08-15T22:25:58.910Z,12.33
2022-08-15T22:28:51.377Z,12.03
2022-08-15T22:31:44.447Z,12.33
2022-08-15T22:34:05.833Z,12.40
2022-08-15T22:36:32.649Z,12.77
2022-08-15T22:39:00.119Z,12.40
2022-08-15T22:41:28.479Z,11.87
2022-08-15T22:44:03.511Z,12.83
2022-08-15T22:46:36.240Z,13.07
2022-08-15T22:49:05.968Z,12.43
2022-08-15T22:51:45.255Z,14.20
2022-08-15T22:54:20.672Z,13.90
2022-08-15T22:56:53.929Z,14.73
2022-08-15T22:59:25.892Z,14.73
2022-08-15T23:02:01.672Z,16.27
2022-08-15T23:04:40.155Z,16.87
2022-08-15T23:07:22.089Z,16.57
2022-08-15T23:09:56.689Z,16.20
2022-08-15T23:12:31.965Z,17.53
2022-08-15T23:15:02.631Z,17.17
2022-08-15T23:17:41.044Z,17.30
2022-08-15T23:20:14.345Z,17.10
2022-08-15T23:22:58.485Z,17.13
2022-08-15T23:25:49.877Z,17.17
2022-08-15T23:28:23.197Z,17.33
2022-08-15T23:30:57.704Z,17.70
2022-08-15T23:33:53.463Z,16.57
2022-08-15T23:36:11.032Z,17.73
2022-08-15T23:38:38.859Z,17.03
2022-08-15T23:41:12.747Z,17.37
2022-08-15T23:43:56.156Z,15.97
2022-08-15T23:46:37.340Z,18.07
2022-08-15T23:49:05.072Z,18.67
2022-08-15T23:51:35.595Z,17.80
2022-08-15T23:54:09.916Z,18.50
2022-08-15T23:56:43.337Z,17.70
2022-08-15T23:59:10.584Z,18.77
